Terminal Aerodrome Forecast
Issued by NWS Sterling, VA

Current Version | Previous Version | Text Only | Print | Product List | Glossary On
Versions: 1 2 3 4 5 6 7 8 9 10 11 12 13 14 15 16 17 18 19 20 21 22
000
FTUS41 KLWX 312000 AAA
TAFDCA
TAF AMD
KDCA 312046Z 3121/0118 21011KT P6SM VCTS BKN040CB
     FM312200 21009KT 6SM -TSRA BKN040CB
      TEMPO 3123/0102 25015G30KT 4SM -TSRA
     FM010400 19004KT P6SM VCTS OVC050CB
     FM010600 19005KT P6SM OVC070=

USA.gov is the U.S. government's official web portal to all federal, state and local government web resources and services.